Ville De Bordeaux — FZCE — position and weather

sailwx.info

Track history (hours):
 
Tides and Currents Weather Stations Pressure Air Temp Water Temp Dewpoint Dewpoint Depression Visibility Wind Speed Wind Dir Waves Ship Positions

Ville De Bordeaux

Last reported at 2015-Jul-06 17:33 UTC. Time now 2015-Jul-06 17:53 UTC.
Position N 36°08' W 006°38'.

Length 150 m; beam 24 m.

Type: Ship. MMSI: 228084000.

Date/timePositionNaut miles runAvg speedWind from/ knotsBaromVisibWave heightAir tempDewpointWater temp
2015-Jul-06 17:33N 36°08' W 006°38'55 2.3
2015-Jul-05 17:33N 35°58' W 005°31'1514.6
2015-Jul-05 16:33N 36°02' W 005°14'17415.3
2015-Jul-05 05:09N 36°33' W 001°41'6116.0
2015-Jul-05 01:23N 36°48' W 000°28'1615.7
2015-Jul-05 00:22N 36°52' W 000°09'1215.0
2015-Jul-04 23:33N 36°56' E 000°06'1515.1
2015-Jul-04 22:33N 37°00' E 000°24'1515.1
2015-Jul-04 21:33N 37°04' E 000°42'1615.6
2015-Jul-04 20:33N 37°08' E 001°01'1616.1
2015-Jul-04 19:33N 37°12' E 001°21'1816.2
2015-Jul-04 18:25N 37°17' E 001°43'1415.7
2015-Jul-04 17:33N 37°20' E 001°60'7615.3
2015-Jul-04 12:33N 37°40' E 003°33'1514.9
2015-Jul-04 11:33N 37°43' E 003°51'1515.1
2015-Jul-04 10:33N 37°47' E 004°09'1615.8
2015-Jul-04 09:33N 37°51' E 004°29'21115.1
2015-Jul-03 19:34N 38°46' E 008°48'1515.2
2015-Jul-03 18:33N 38°51' E 009°06'1615.7
2015-Jul-03 17:33N 38°56' E 009°25'1615.5
2015-Jul-03 16:33N 39°02' E 009°44'13015.5
2015-Jul-03 08:08N 40°00' E 012°15'1315.1
2015-Jul-03 07:14N 40°07' E 012°31'5915.3
2015-Jul-03 03:24N 40°32' E 013°40'1315.3
2015-Jul-03 02:33N 40°39' E 013°54'1515.4
2015-Jul-03 01:34N 40°46' E 014°12'5 1.2
2015-Jul-02 21:33N 40°50' E 014°17'1312.8
2015-Jul-02 20:33N 40°42' E 014°03'1514.6
2015-Jul-02 19:33N 40°36' E 013°46'12315.3
2015-Jul-02 11:34N 39°41' E 011°23'9414.6
2015-Jul-02 05:08N 38°59' E 009°34'1214.0
2015-Jul-02 04:15N 38°55' E 009°19'1013.9
2015-Jul-02 03:32N 38°52' E 009°07'1513.9
2015-Jul-02 02:29N 38°47' E 008°49'2013.9
2015-Jul-02 01:05N 38°41' E 008°25'1214.2
2015-Jul-02 00:14N 38°38' E 008°10'914.1
2015-Jul-01 23:33N 38°36' E 007°59'1514.0
2015-Jul-01 22:28N 38°31' E 007°40'9612.2
2015-Jul-01 14:33N 38°06' E 005°41'1110.3
2015-Jul-01 13:27N 38°03' E 005°28'910.0
2015-Jul-01 12:33N 38°01' E 005°17'10 9.6
2015-Jul-01 11:33N 37°58' E 005°05'9 9.5
2015-Jul-01 10:34N 37°56' E 004°53'10 9.5
2015-Jul-01 09:33N 37°53' E 004°41'14 9.3
2015-Jul-01 08:04N 37°49' E 004°25'5 9.6
2015-Jul-01 07:33N 37°48' E 004°18'10 9.9
2015-Jul-01 06:33N 37°45' E 004°06'1010.4
2015-Jul-01 05:33N 37°43' E 003°54'1010.3
2015-Jul-01 04:33N 37°39' E 003°41'10 9.9
2015-Jul-01 03:33N 37°37' E 003°29'1010.3
2015-Jul-01 02:33N 37°34' E 003°17'1010.1
2015-Jul-01 01:33N 37°32' E 003°04'1010.1
2015-Jul-01 00:33N 37°29' E 002°52'10 9.9
2015-Jun-30 23:33N 37°27' E 002°40'10 9.8
2015-Jun-30 22:33N 37°24' E 002°28'10 9.9
2015-Jun-30 21:33N 37°22' E 002°16'10 9.8
2015-Jun-30 20:33N 37°19' E 002°04'10 9.7
2015-Jun-30 19:33N 37°16' E 001°52'10 9.6
2015-Jun-30 18:33N 37°14' E 001°41'9 9.4
2015-Jun-30 17:33N 37°11' E 001°29'9 9.2
2015-Jun-30 16:33N 37°09' E 001°18'10 9.5
2015-Jun-30 15:33N 37°06' E 001°07'10 9.7
2015-Jun-30 14:33N 37°03' E 000°55'1010.1
2015-Jun-30 13:33N 37°00' E 000°43'2010.1
2015-Jun-30 11:33N 36°55' E 000°18'1010.1
2015-Jun-30 10:33N 36°52' E 000°06'1010.0
2015-Jun-30 09:33N 36°49' W 000°06'10 9.7
2015-Jun-30 08:33N 36°47' W 000°17'10 9.7
2015-Jun-30 07:33N 36°44' W 000°29'1212.5
2015-Jun-30 06:33N 36°41' W 000°44'1414.3
2015-Jun-30 05:33N 36°38' W 001°01'1514.6
2015-Jun-30 04:33N 36°34' W 001°19'1514.4
2015-Jun-30 03:30N 36°30' W 001°37'2914.2
2015-Jun-30 01:28N 36°22' W 002°12'2814.7
2015-Jun-29 23:33N 36°17' W 002°46'12615.8
2015-Jun-29 15:33N 35°58' W 005°20'58 4.3
2015-Jun-29 02:06N 35°58' W 006°32'10215.7
2015-Jun-28 19:33N 36°25' W 008°34'1515.4
2015-Jun-28 18:33N 36°29' W 008°53'1515.3
2015-Jun-28 17:33N 36°33' W 009°11'1515.2
2015-Jun-28 16:33N 36°42' W 009°26'1515.1
2015-Jun-28 15:33N 36°55' W 009°35'1615.6
2015-Jun-28 14:33N 37°10' W 009°39'1615.5
2015-Jun-28 13:33N 37°25' W 009°44'1616.0
2015-Jun-28 12:33N 37°41' W 009°49'1616.1
2015-Jun-28 11:33N 37°56' W 009°53'1616.2
2015-Jun-28 10:33N 38°12' W 009°58'1616.1
2015-Jun-28 09:33N 38°28' W 010°02'1615.6
2015-Jun-28 08:33N 38°43' W 010°06'1615.6
2015-Jun-28 07:33N 38°59' W 010°08'1615.6
2015-Jun-28 06:33N 39°14' W 010°08'1716.6
2015-Jun-28 05:33N 39°31' W 010°07'5116.5
2015-Jun-28 02:28N 40°22' W 010°09'42414.2
2015-Jun-26 20:33N 45°33' W 003°35'3515.6
2015-Jun-26 18:19N 45°46' W 002°48'  
Track history (hours):
 
Tides and Currents Weather Stations Pressure Air Temp Water Temp Dewpoint Dewpoint Depression Visibility Wind Speed Wind Dir Waves Ship Positions

Ville De Bordeaux

Last reported at 2015-Jul-06 17:33 UTC. Time now 2015-Jul-06 17:53 UTC.
Position N 36°08' W 006°38'.

Length 150 m; beam 24 m.

Type: Ship. MMSI: 228084000.

Date/timePositionNaut miles runAvg speedWind from/ knotsBaromVisibWave heightAir tempDewpointWater temp
2015-Jul-06 17:33N 36°08' W 006°38'55 2.3
2015-Jul-05 17:33N 35°58' W 005°31'1514.6
2015-Jul-05 16:33N 36°02' W 005°14'17415.3
2015-Jul-05 05:09N 36°33' W 001°41'6116.0
2015-Jul-05 01:23N 36°48' W 000°28'1615.7
2015-Jul-05 00:22N 36°52' W 000°09'1215.0
2015-Jul-04 23:33N 36°56' E 000°06'1515.1
2015-Jul-04 22:33N 37°00' E 000°24'1515.1
2015-Jul-04 21:33N 37°04' E 000°42'1615.6
2015-Jul-04 20:33N 37°08' E 001°01'1616.1
2015-Jul-04 19:33N 37°12' E 001°21'1816.2
2015-Jul-04 18:25N 37°17' E 001°43'1415.7
2015-Jul-04 17:33N 37°20' E 001°60'7615.3
2015-Jul-04 12:33N 37°40' E 003°33'1514.9
2015-Jul-04 11:33N 37°43' E 003°51'1515.1
2015-Jul-04 10:33N 37°47' E 004°09'1615.8
2015-Jul-04 09:33N 37°51' E 004°29'21115.1
2015-Jul-03 19:34N 38°46' E 008°48'1515.2
2015-Jul-03 18:33N 38°51' E 009°06'1615.7
2015-Jul-03 17:33N 38°56' E 009°25'1615.5
2015-Jul-03 16:33N 39°02' E 009°44'13015.5
2015-Jul-03 08:08N 40°00' E 012°15'1315.1
2015-Jul-03 07:14N 40°07' E 012°31'5915.3
2015-Jul-03 03:24N 40°32' E 013°40'1315.3
2015-Jul-03 02:33N 40°39' E 013°54'1515.4
2015-Jul-03 01:34N 40°46' E 014°12'5 1.2
2015-Jul-02 21:33N 40°50' E 014°17'1312.8
2015-Jul-02 20:33N 40°42' E 014°03'1514.6
2015-Jul-02 19:33N 40°36' E 013°46'12315.3
2015-Jul-02 11:34N 39°41' E 011°23'9414.6
2015-Jul-02 05:08N 38°59' E 009°34'1214.0
2015-Jul-02 04:15N 38°55' E 009°19'1013.9
2015-Jul-02 03:32N 38°52' E 009°07'1513.9
2015-Jul-02 02:29N 38°47' E 008°49'2013.9
2015-Jul-02 01:05N 38°41' E 008°25'1214.2
2015-Jul-02 00:14N 38°38' E 008°10'914.1
2015-Jul-01 23:33N 38°36' E 007°59'1514.0
2015-Jul-01 22:28N 38°31' E 007°40'9612.2
2015-Jul-01 14:33N 38°06' E 005°41'1110.3
2015-Jul-01 13:27N 38°03' E 005°28'910.0
2015-Jul-01 12:33N 38°01' E 005°17'10 9.6
2015-Jul-01 11:33N 37°58' E 005°05'9 9.5
2015-Jul-01 10:34N 37°56' E 004°53'10 9.5
2015-Jul-01 09:33N 37°53' E 004°41'14 9.3
2015-Jul-01 08:04N 37°49' E 004°25'5 9.6
2015-Jul-01 07:33N 37°48' E 004°18'10 9.9
2015-Jul-01 06:33N 37°45' E 004°06'1010.4
2015-Jul-01 05:33N 37°43' E 003°54'1010.3
2015-Jul-01 04:33N 37°39' E 003°41'10 9.9
2015-Jul-01 03:33N 37°37' E 003°29'1010.3
2015-Jul-01 02:33N 37°34' E 003°17'1010.1
2015-Jul-01 01:33N 37°32' E 003°04'1010.1
2015-Jul-01 00:33N 37°29' E 002°52'10 9.9
2015-Jun-30 23:33N 37°27' E 002°40'10 9.8
2015-Jun-30 22:33N 37°24' E 002°28'10 9.9
2015-Jun-30 21:33N 37°22' E 002°16'10 9.8
2015-Jun-30 20:33N 37°19' E 002°04'10 9.7
2015-Jun-30 19:33N 37°16' E 001°52'10 9.6
2015-Jun-30 18:33N 37°14' E 001°41'9 9.4
2015-Jun-30 17:33N 37°11' E 001°29'9 9.2
2015-Jun-30 16:33N 37°09' E 001°18'10 9.5
2015-Jun-30 15:33N 37°06' E 001°07'10 9.7
2015-Jun-30 14:33N 37°03' E 000°55'1010.1
2015-Jun-30 13:33N 37°00' E 000°43'2010.1
2015-Jun-30 11:33N 36°55' E 000°18'1010.1
2015-Jun-30 10:33N 36°52' E 000°06'1010.0
2015-Jun-30 09:33N 36°49' W 000°06'10 9.7
2015-Jun-30 08:33N 36°47' W 000°17'10 9.7
2015-Jun-30 07:33N 36°44' W 000°29'1212.5
2015-Jun-30 06:33N 36°41' W 000°44'1414.3
2015-Jun-30 05:33N 36°38' W 001°01'1514.6
2015-Jun-30 04:33N 36°34' W 001°19'1514.4
2015-Jun-30 03:30N 36°30' W 001°37'2914.2
2015-Jun-30 01:28N 36°22' W 002°12'2814.7
2015-Jun-29 23:33N 36°17' W 002°46'12615.8
2015-Jun-29 15:33N 35°58' W 005°20'58 4.3
2015-Jun-29 02:06N 35°58' W 006°32'10215.7
2015-Jun-28 19:33N 36°25' W 008°34'1515.4
2015-Jun-28 18:33N 36°29' W 008°53'1515.3
2015-Jun-28 17:33N 36°33' W 009°11'1515.2
2015-Jun-28 16:33N 36°42' W 009°26'1515.1
2015-Jun-28 15:33N 36°55' W 009°35'1615.6
2015-Jun-28 14:33N 37°10' W 009°39'1615.5
2015-Jun-28 13:33N 37°25' W 009°44'1616.0
2015-Jun-28 12:33N 37°41' W 009°49'1616.1
2015-Jun-28 11:33N 37°56' W 009°53'1616.2
2015-Jun-28 10:33N 38°12' W 009°58'1616.1
2015-Jun-28 09:33N 38°28' W 010°02'1615.6
2015-Jun-28 08:33N 38°43' W 010°06'1615.6
2015-Jun-28 07:33N 38°59' W 010°08'1615.6
2015-Jun-28 06:33N 39°14' W 010°08'1716.6
2015-Jun-28 05:33N 39°31' W 010°07'5116.5
2015-Jun-28 02:28N 40°22' W 010°09'42414.2
2015-Jun-26 20:33N 45°33' W 003°35'3515.6
2015-Jun-26 18:19N 45°46' W 002°48'  

Dump ship's entire track history